createdAt,value
2022-09-06T00:02:10.743Z,20.81
2022-09-06T00:04:40.609Z,20.65
2022-09-06T00:07:09.827Z,20.72
2022-09-06T00:09:38.347Z,20.74
2022-09-06T00:12:07.268Z,20.83
2022-09-06T00:14:38.662Z,20.74
2022-09-06T00:17:07.764Z,20.52
2022-09-06T00:19:36.708Z,20.74
2022-09-06T00:22:06.212Z,20.45
2022-09-06T00:24:37.465Z,20.43
2022-09-06T00:27:07.511Z,20.73
2022-09-06T00:29:38.593Z,20.53
2022-09-06T00:32:09.615Z,20.71
2022-09-06T00:34:39.820Z,20.55
2022-09-06T00:37:09.138Z,20.59
2022-09-06T00:39:40.147Z,20.54
2022-09-06T00:42:10.198Z,20.60
2022-09-06T00:44:38.799Z,20.49
2022-09-06T00:47:09.865Z,20.48
2022-09-06T00:49:42.694Z,20.47
2022-09-06T00:52:13.489Z,20.55
2022-09-06T00:54:42.877Z,20.58
2022-09-06T00:57:12.348Z,20.56
2022-09-06T00:59:42.861Z,20.58
2022-09-06T01:02:13.419Z,20.36
2022-09-06T01:04:44.909Z,20.36
2022-09-06T01:07:19.748Z,20.22
2022-09-06T01:09:58.826Z,20.35
2022-09-06T01:12:42.173Z,20.13
2022-09-06T01:15:19.474Z,20.09
2022-09-06T01:17:56.926Z,20.09
2022-09-06T01:20:43.226Z,20.15
2022-09-06T01:23:39.409Z,20.10
2022-09-06T01:26:25.040Z,20.14
2022-09-06T01:28:56.267Z,20.03
2022-09-06T01:31:29.261Z,20.11
2022-09-06T01:34:13.920Z,20.12
2022-09-06T01:37:08.272Z,20.12
2022-09-06T01:39:40.012Z,20.13
2022-09-06T01:42:10.979Z,19.95
2022-09-06T01:44:43.446Z,19.93
2022-09-06T01:47:22.269Z,20.00
2022-09-06T01:50:22.971Z,19.98
2022-09-06T01:52:58.902Z,19.83
2022-09-06T01:55:32.298Z,19.79
2022-09-06T01:58:14.914Z,19.70
2022-09-06T02:00:49.641Z,19.83
2022-09-06T02:03:27.403Z,19.71
2022-09-06T02:05:57.601Z,19.70
2022-09-06T02:08:29.302Z,19.83
2022-09-06T02:11:00.856Z,19.77
2022-09-06T02:13:32.430Z,19.90
2022-09-06T02:16:05.780Z,19.67
2022-09-06T02:18:39.635Z,19.63
2022-09-06T02:21:10.531Z,19.69
2022-09-06T02:23:41.611Z,19.71
2022-09-06T02:26:13.992Z,19.73
2022-09-06T02:28:42.985Z,19.51
2022-09-06T02:31:18.023Z,19.60
2022-09-06T02:33:47.724Z,19.56
2022-09-06T02:36:17.679Z,19.75
2022-09-06T02:38:47.145Z,19.74
2022-09-06T02:41:19.374Z,19.62
2022-09-06T02:43:48.885Z,19.70
2022-09-06T02:46:20.969Z,19.45
2022-09-06T02:48:50.279Z,19.47
2022-09-06T02:51:19.258Z,19.42
2022-09-06T02:53:48.838Z,19.46
2022-09-06T02:56:18.103Z,19.41
2022-09-06T02:58:47.626Z,19.41
2022-09-06T03:01:16.058Z,19.50
2022-09-06T03:03:47.210Z,19.55
2022-09-06T03:06:15.971Z,19.39
2022-09-06T03:08:45.468Z,19.43
2022-09-06T03:11:14.300Z,19.65
2022-09-06T03:13:43.834Z,19.48
2022-09-06T03:16:12.046Z,19.34
2022-09-06T03:18:41.881Z,19.25
2022-09-06T03:21:12.426Z,19.37
2022-09-06T03:23:41.985Z,19.38
2022-09-06T03:26:11.074Z,19.32
2022-09-06T03:28:40.443Z,19.39
2022-09-06T03:31:09.232Z,19.44
2022-09-06T03:33:39.997Z,19.17
2022-09-06T03:36:09.300Z,19.28
2022-09-06T03:38:41.145Z,18.97
2022-09-06T03:41:10.035Z,19.13
2022-09-06T03:43:38.627Z,19.11
2022-09-06T03:46:07.380Z,19.20
2022-09-06T03:48:36.612Z,19.27
2022-09-06T03:51:05.105Z,19.11
2022-09-06T03:53:35.539Z,19.06
2022-09-06T03:56:05.712Z,18.98
2022-09-06T03:58:35.146Z,19.09
2022-09-06T04:01:08.118Z,19.18
2022-09-06T04:03:36.879Z,19.19
2022-09-06T04:06:06.582Z,19.09
2022-09-06T04:08:35.480Z,19.15
2022-09-06T04:11:06.238Z,19.11
2022-09-06T04:13:35.436Z,19.20
2022-09-06T04:16:05.056Z,18.88
2022-09-06T04:18:33.521Z,19.06
2022-09-06T04:21:02.566Z,19.07
2022-09-06T04:23:31.219Z,19.02
2022-09-06T04:26:00.585Z,19.02
2022-09-06T04:28:30.333Z,18.98
2022-09-06T04:31:04.346Z,18.87
2022-09-06T04:33:34.972Z,19.05
2022-09-06T04:36:08.287Z,18.94
2022-09-06T04:38:38.957Z,18.92
2022-09-06T04:41:22.901Z,18.95
2022-09-06T04:44:20.582Z,19.11
2022-09-06T04:47:12.962Z,19.00
2022-09-06T04:49:53.940Z,18.99
2022-09-06T04:52:36.158Z,18.87
2022-09-06T04:56:03.393Z,18.89
2022-09-06T05:03:30.741Z,18.91
2022-09-06T05:06:22.200Z,19.00
2022-09-06T05:08:57.589Z,19.15
2022-09-06T05:11:48.043Z,19.05
2022-09-06T05:14:17.851Z,18.92
2022-09-06T05:17:04.025Z,18.90
2022-09-06T05:19:48.111Z,19.06
2022-09-06T05:22:26.126Z,18.97
2022-09-06T05:25:10.491Z,19.10
2022-09-06T05:27:57.918Z,18.95
2022-09-06T05:31:06.397Z,19.06
2022-09-06T05:34:03.587Z,19.25
2022-09-06T05:36:42.003Z,19.31
2022-09-06T05:39:14.651Z,19.18
2022-09-06T05:41:44.715Z,19.27
2022-09-06T05:44:13.499Z,19.36
2022-09-06T05:46:45.313Z,19.28
2022-09-06T05:49:15.275Z,19.43
2022-09-06T05:51:45.606Z,19.55
2022-09-06T05:54:14.999Z,19.34
2022-09-06T05:56:44.790Z,19.47
2022-09-06T05:59:13.318Z,19.57
2022-09-06T06:01:49.164Z,19.64
2022-09-06T06:04:18.748Z,19.65
2022-09-06T06:06:50.219Z,19.68
2022-09-06T06:09:20.763Z,19.61
2022-09-06T06:11:50.540Z,19.74
2022-09-06T06:14:19.441Z,19.83
2022-09-06T06:16:48.848Z,19.80
2022-09-06T06:19:17.224Z,20.00
2022-09-06T06:21:47.153Z,19.97
2022-09-06T06:24:17.869Z,20.02
2022-09-06T06:26:47.425Z,20.16
2022-09-06T06:29:16.793Z,20.25
2022-09-06T06:31:46.456Z,20.06
2022-09-06T06:34:16.604Z,20.23
2022-09-06T06:36:46.284Z,20.14
2022-09-06T06:39:15.528Z,20.10
2022-09-06T06:41:46.534Z,20.30
2022-09-06T06:44:38.426Z,20.33
2022-09-06T06:47:07.665Z,20.30
2022-09-06T06:49:36.605Z,20.35
2022-09-06T06:52:06.865Z,20.56
2022-09-06T06:54:36.503Z,20.38
2022-09-06T06:57:09.516Z,20.36
2022-09-06T06:59:38.526Z,20.56
2022-09-06T07:02:07.878Z,20.57
2022-09-06T07:04:39.802Z,20.67
2022-09-06T07:12:48.457Z,20.67
2022-09-06T07:15:17.371Z,20.76
2022-09-06T07:17:45.703Z,20.70
2022-09-06T07:20:14.976Z,20.90
2022-09-06T07:22:43.742Z,20.98
2022-09-06T07:25:16.511Z,20.97
2022-09-06T07:27:50.514Z,20.86
2022-09-06T07:30:20.610Z,20.94
2022-09-06T07:32:49.129Z,20.93
2022-09-06T07:35:20.523Z,21.00
2022-09-06T07:37:56.148Z,21.14
2022-09-06T07:40:24.528Z,21.14
2022-09-06T07:42:54.500Z,21.24
2022-09-06T07:45:22.777Z,21.19
2022-09-06T07:53:16.708Z,21.38
2022-09-06T07:55:48.539Z,21.40
2022-09-06T07:58:18.155Z,21.47
2022-09-06T08:00:46.416Z,21.48
2022-09-06T08:03:16.037Z,21.50
2022-09-06T08:11:25.063Z,21.60
2022-09-06T08:13:57.169Z,21.57
2022-09-06T08:16:28.093Z,21.68
2022-09-06T08:18:59.228Z,21.76
2022-09-06T08:21:30.188Z,21.90
2022-09-06T08:23:59.596Z,21.83
2022-09-06T08:26:29.820Z,22.01
2022-09-06T08:29:01.066Z,22.18
2022-09-06T08:31:32.350Z,22.15
2022-09-06T08:34:02.223Z,22.01
2022-09-06T08:36:31.861Z,22.06
2022-09-06T08:39:01.490Z,22.08
2022-09-06T08:41:33.168Z,22.19
2022-09-06T08:46:58.945Z,22.60
2022-09-06T08:49:36.646Z,22.63
2022-09-06T08:52:17.812Z,22.74
2022-09-06T08:54:53.831Z,22.83
2022-09-06T08:57:35.021Z,22.66
2022-09-06T09:00:13.473Z,22.70
2022-09-06T09:02:51.881Z,22.86
2022-09-06T09:05:24.812Z,22.85
2022-09-06T09:08:09.537Z,22.89
2022-09-06T09:10:43.693Z,22.93
2022-09-06T09:13:32.536Z,23.01
2022-09-06T09:16:06.683Z,23.11
2022-09-06T09:18:38.544Z,23.37
2022-09-06T09:21:07.614Z,23.50
2022-09-06T09:23:38.312Z,23.56
2022-09-06T09:26:10.992Z,23.65
2022-09-06T09:28:40.565Z,23.52
2022-09-06T09:31:11.143Z,23.34
2022-09-06T09:33:41.238Z,23.48
2022-09-06T09:36:12.902Z,23.48
2022-09-06T09:38:44.630Z,23.75
2022-09-06T09:41:26.737Z,23.80
2022-09-06T09:44:02.271Z,23.83
2022-09-06T09:46:35.995Z,23.96
2022-09-06T09:49:10.571Z,23.66
2022-09-06T09:51:39.954Z,23.89
2022-09-06T09:54:11.228Z,23.97
2022-09-06T09:56:47.360Z,23.98
2022-09-06T09:59:26.013Z,24.01
2022-09-06T10:02:00.091Z,24.20
2022-09-06T10:04:44.244Z,24.32
2022-09-06T10:07:16.474Z,24.51
2022-09-06T10:09:47.981Z,24.52
2022-09-06T10:12:30.426Z,24.38
2022-09-06T10:15:02.528Z,24.52
2022-09-06T10:17:37.439Z,24.67
2022-09-06T10:20:09.410Z,24.63
2022-09-06T10:22:48.578Z,24.61
2022-09-06T10:25:39.725Z,24.30
2022-09-06T10:28:41.981Z,24.45
2022-09-06T10:31:43.674Z,24.81
2022-09-06T10:34:40.373Z,25.03
2022-09-06T10:37:18.812Z,25.04
2022-09-06T10:39:55.452Z,25.13
2022-09-06T10:42:31.526Z,25.32
2022-09-06T10:45:25.450Z,25.09
2022-09-06T10:48:01.487Z,25.39
2022-09-06T10:50:40.288Z,25.65
2022-09-06T10:53:12.900Z,25.63
2022-09-06T10:55:46.260Z,25.68
2022-09-06T10:58:21.553Z,25.58
2022-09-06T11:00:59.188Z,25.63
2022-09-06T11:06:30.159Z,25.83
2022-09-06T11:09:04.783Z,25.76
2022-09-06T11:11:40.163Z,25.86
2022-09-06T11:14:13.851Z,26.17
2022-09-06T11:16:47.936Z,26.42
2022-09-06T11:19:21.720Z,26.64
2022-09-06T11:22:24.397Z,26.50
2022-09-06T11:25:23.298Z,26.36
2022-09-06T11:27:57.991Z,26.58
2022-09-06T11:30:29.939Z,26.58
2022-09-06T11:33:10.092Z,26.25
2022-09-06T11:35:38.668Z,26.26
2022-09-06T11:38:17.429Z,26.50
2022-09-06T11:40:50.049Z,26.65
2022-09-06T11:43:22.806Z,26.73
2022-09-06T11:45:56.797Z,26.81
2022-09-06T11:48:52.968Z,27.17
2022-09-06T11:51:40.542Z,26.79
2022-09-06T11:54:23.041Z,26.76
2022-09-06T11:56:57.217Z,26.58
2022-09-06T11:59:40.441Z,26.38
2022-09-06T12:02:31.690Z,26.14
2022-09-06T12:05:19.943Z,26.29
2022-09-06T12:08:30.571Z,26.23
2022-09-06T12:11:02.281Z,26.60
2022-09-06T12:13:53.808Z,26.99
2022-09-06T12:16:23.669Z,27.27
2022-09-06T12:19:00.999Z,27.54
2022-09-06T12:21:46.356Z,27.45
2022-09-06T12:24:53.995Z,27.55
2022-09-06T12:27:25.682Z,27.28
2022-09-06T12:29:59.552Z,27.17
2022-09-06T12:32:33.712Z,27.17
2022-09-06T12:38:02.760Z,27.72
2022-09-06T12:40:36.255Z,27.88
2022-09-06T12:43:05.857Z,27.62
2022-09-06T12:45:37.329Z,27.55
2022-09-06T12:48:08.663Z,27.51
2022-09-06T12:50:37.269Z,27.72
2022-09-06T12:53:22.766Z,27.53
2022-09-06T12:56:04.431Z,27.51
2022-09-06T12:58:32.760Z,27.39
2022-09-06T13:01:12.477Z,27.83
2022-09-06T13:03:42.985Z,28.09
2022-09-06T13:06:16.075Z,28.18
2022-09-06T13:08:47.631Z,28.15
2022-09-06T13:11:21.245Z,28.09
2022-09-06T13:13:50.985Z,28.17
2022-09-06T13:16:26.341Z,28.02
2022-09-06T13:18:55.417Z,28.07
2022-09-06T13:21:31.275Z,28.44
2022-09-06T13:24:04.086Z,28.55
2022-09-06T13:26:40.517Z,28.66
2022-09-06T13:29:13.282Z,28.42
2022-09-06T13:31:47.060Z,28.54
2022-09-06T13:34:22.697Z,28.53
2022-09-06T13:36:53.445Z,28.69
2022-09-06T13:39:33.152Z,28.01
2022-09-06T13:42:05.779Z,27.66
2022-09-06T13:44:35.789Z,27.79
2022-09-06T13:47:07.116Z,27.65
2022-09-06T13:49:35.981Z,27.26
2022-09-06T13:52:05.846Z,27.12
2022-09-06T13:54:35.645Z,27.42
2022-09-06T13:57:05.223Z,27.62
2022-09-06T13:59:36.104Z,27.70
2022-09-06T14:02:10.054Z,27.93
2022-09-06T14:04:40.505Z,27.89
2022-09-06T14:07:10.343Z,27.87
2022-09-06T14:09:39.151Z,27.69
2022-09-06T14:12:09.312Z,27.77
2022-09-06T14:14:38.352Z,27.72
2022-09-06T14:17:08.975Z,27.57
2022-09-06T14:19:40.804Z,27.63
2022-09-06T14:22:10.134Z,27.32
2022-09-06T14:24:40.933Z,27.19
2022-09-06T14:27:10.554Z,27.18
2022-09-06T14:29:39.458Z,27.34
2022-09-06T14:32:10.162Z,27.39
2022-09-06T14:34:40.836Z,27.42
2022-09-06T14:37:13.415Z,27.47
2022-09-06T14:39:42.204Z,27.07
2022-09-06T14:42:11.158Z,27.33
2022-09-06T14:44:39.472Z,27.54
2022-09-06T14:47:09.601Z,27.65
2022-09-06T14:49:40.924Z,27.71
2022-09-06T14:52:10.028Z,27.56
2022-09-06T14:54:38.442Z,27.57
2022-09-06T14:57:07.111Z,27.63
2022-09-06T14:59:35.763Z,27.65
2022-09-06T15:02:05.515Z,27.67
2022-09-06T15:04:37.604Z,27.84
2022-09-06T15:07:06.232Z,27.84
2022-09-06T15:09:34.600Z,27.87
2022-09-06T15:12:03.304Z,28.08
2022-09-06T15:14:31.659Z,28.12
2022-09-06T15:17:00.684Z,27.99
2022-09-06T15:19:30.226Z,27.95
2022-09-06T15:22:00.747Z,28.08
2022-09-06T15:24:29.414Z,27.94
2022-09-06T15:26:58.780Z,27.95
2022-09-06T15:29:27.522Z,27.82
2022-09-06T15:31:56.287Z,27.93
2022-09-06T15:34:26.960Z,28.01
2022-09-06T15:36:56.854Z,27.95
2022-09-06T15:39:26.852Z,27.75
2022-09-06T15:41:57.215Z,27.61
2022-09-06T15:44:26.834Z,27.34
2022-09-06T15:46:57.820Z,27.39
2022-09-06T15:49:28.739Z,27.35
2022-09-06T15:51:58.352Z,27.35
2022-09-06T15:54:48.277Z,27.70
2022-09-06T15:57:18.548Z,27.84
2022-09-06T15:59:46.954Z,27.55
2022-09-06T16:02:18.500Z,27.21
2022-09-06T16:04:47.050Z,26.76
2022-09-06T16:07:16.369Z,26.56
2022-09-06T16:09:45.901Z,26.49
2022-09-06T16:12:14.405Z,26.51
2022-09-06T16:14:42.647Z,26.13
2022-09-06T16:17:12.521Z,25.99
2022-09-06T16:19:41.235Z,25.86
2022-09-06T16:22:10.542Z,25.95
2022-09-06T16:24:39.270Z,25.90
2022-09-06T16:27:09.546Z,25.98
2022-09-06T16:29:38.485Z,25.75
2022-09-06T16:32:07.127Z,25.70
2022-09-06T16:34:38.004Z,25.77
2022-09-06T16:37:08.245Z,25.62
2022-09-06T16:39:38.206Z,25.66
2022-09-06T16:42:09.236Z,25.73
2022-09-06T16:44:38.452Z,25.67
2022-09-06T16:47:07.430Z,25.69
2022-09-06T16:49:36.014Z,25.50
2022-09-06T16:52:05.370Z,25.50
2022-09-06T16:54:34.165Z,25.35
2022-09-06T16:57:03.440Z,25.25
2022-09-06T16:59:33.066Z,25.16
2022-09-06T17:02:02.189Z,25.15
2022-09-06T17:04:30.700Z,25.06
2022-09-06T17:06:59.161Z,25.06
2022-09-06T17:09:27.430Z,24.90
2022-09-06T17:11:56.915Z,24.84
2022-09-06T17:14:25.205Z,24.87
2022-09-06T17:17:07.719Z,24.76
2022-09-06T17:19:37.944Z,24.67
2022-09-06T17:22:07.450Z,24.62
2022-09-06T17:24:35.897Z,24.50
2022-09-06T17:27:06.150Z,24.49
2022-09-06T17:29:35.428Z,24.45
2022-09-06T17:32:10.432Z,24.40
2022-09-06T17:34:41.987Z,24.40
2022-09-06T17:37:11.640Z,24.35
2022-09-06T17:39:40.981Z,24.13
2022-09-06T17:42:11.162Z,24.21
2022-09-06T17:44:39.903Z,24.19
2022-09-06T17:47:13.632Z,24.24
2022-09-06T17:49:42.862Z,24.25
2022-09-06T17:52:13.886Z,24.17
2022-09-06T17:54:42.408Z,24.00
2022-09-06T17:57:12.132Z,23.89
2022-09-06T17:59:40.883Z,23.84
2022-09-06T18:02:12.271Z,23.86
2022-09-06T18:04:40.977Z,23.77
2022-09-06T18:07:10.887Z,23.83
2022-09-06T18:09:41.073Z,23.70
2022-09-06T18:12:11.343Z,23.72
2022-09-06T18:14:39.874Z,23.66
2022-09-06T18:17:09.921Z,23.72
2022-09-06T18:19:42.163Z,23.61
2022-09-06T18:22:12.091Z,23.57
2022-09-06T18:24:40.851Z,23.59
2022-09-06T18:27:10.928Z,23.53
2022-09-06T18:29:41.061Z,23.58
2022-09-06T18:32:11.035Z,23.48
2022-09-06T18:34:43.419Z,23.53
2022-09-06T18:37:13.538Z,23.50
2022-09-06T18:39:43.417Z,23.40
2022-09-06T18:42:12.847Z,23.42
2022-09-06T18:44:41.632Z,23.26
2022-09-06T18:47:12.822Z,23.26
2022-09-06T18:49:44.307Z,23.14
2022-09-06T18:52:14.169Z,23.27
2022-09-06T18:54:43.824Z,23.32
2022-09-06T18:57:12.872Z,23.15
2022-09-06T18:59:42.628Z,23.29
2022-09-06T19:02:12.542Z,23.21
2022-09-06T19:04:42.635Z,23.17
2022-09-06T19:07:11.720Z,23.21
2022-09-06T19:09:42.787Z,23.22
2022-09-06T19:12:12.460Z,23.13
2022-09-06T19:14:41.448Z,23.16
2022-09-06T19:17:10.804Z,23.09
2022-09-06T19:19:39.504Z,22.98
2022-09-06T19:22:10.159Z,22.98
2022-09-06T19:24:40.443Z,22.88
2022-09-06T19:27:10.975Z,22.86
2022-09-06T19:29:39.654Z,23.02
2022-09-06T19:32:08.387Z,22.96
2022-09-06T19:34:38.265Z,22.88
2022-09-06T19:37:09.868Z,22.86
2022-09-06T19:39:41.120Z,22.79
2022-09-06T19:42:21.744Z,22.77
2022-09-06T19:45:05.121Z,22.76
2022-09-06T19:47:33.895Z,22.76
2022-09-06T19:50:05.112Z,22.84
2022-09-06T19:52:37.776Z,22.80
2022-09-06T19:55:08.178Z,22.55
2022-09-06T19:57:41.245Z,22.62
2022-09-06T20:00:12.353Z,22.58
2022-09-06T20:02:43.681Z,22.52
2022-09-06T20:05:15.871Z,22.64
2022-09-06T20:07:47.321Z,22.61
2022-09-06T20:10:17.313Z,22.54
2022-09-06T20:12:46.378Z,22.34
2022-09-06T20:15:20.620Z,22.48
2022-09-06T20:17:54.112Z,22.46
2022-09-06T20:20:26.161Z,22.43
2022-09-06T20:23:00.753Z,22.34
2022-09-06T20:25:32.234Z,22.46
2022-09-06T20:28:02.970Z,22.48
2022-09-06T20:30:32.252Z,22.30
2022-09-06T20:33:00.847Z,22.29
2022-09-06T20:35:31.574Z,22.29
2022-09-06T20:38:01.761Z,22.21
2022-09-06T20:40:31.226Z,22.34
2022-09-06T20:43:03.235Z,22.23
2022-09-06T20:45:34.037Z,22.10
2022-09-06T20:48:04.648Z,22.04
2022-09-06T20:50:34.958Z,22.17
2022-09-06T20:53:04.993Z,22.04
2022-09-06T20:55:33.582Z,22.17
2022-09-06T20:58:02.888Z,22.20
2022-09-06T21:00:32.584Z,22.23
2022-09-06T21:03:00.902Z,22.17
2022-09-06T21:05:29.824Z,22.16
2022-09-06T21:08:08.131Z,22.03
2022-09-06T21:10:39.844Z,22.09
2022-09-06T21:13:10.213Z,21.98
2022-09-06T21:15:41.062Z,21.97
2022-09-06T21:18:10.332Z,22.00
2022-09-06T21:20:42.524Z,21.96
2022-09-06T21:23:11.882Z,22.01
2022-09-06T21:25:50.174Z,21.92
2022-09-06T21:28:18.398Z,21.84
2022-09-06T21:30:47.624Z,21.82
2022-09-06T21:33:15.770Z,21.88
2022-09-06T21:35:44.536Z,21.83
2022-09-06T21:38:12.764Z,21.73
2022-09-06T21:40:43.131Z,21.65
2022-09-06T21:43:11.491Z,21.73
2022-09-06T21:45:39.920Z,21.74
2022-09-06T21:48:08.236Z,21.76
2022-09-06T21:50:36.984Z,21.75
2022-09-06T21:53:05.215Z,21.73
2022-09-06T21:55:33.901Z,21.62
2022-09-06T21:58:03.566Z,21.68
2022-09-06T22:00:33.035Z,21.72
2022-09-06T22:03:01.234Z,21.39
2022-09-06T22:05:29.581Z,21.43
2022-09-06T22:07:59.252Z,21.59
2022-09-06T22:10:30.899Z,21.60
2022-09-06T22:13:01.947Z,21.43
2022-09-06T22:15:40.469Z,21.60
2022-09-06T22:18:09.138Z,21.37
2022-09-06T22:20:37.952Z,21.50
2022-09-06T22:23:12.914Z,21.49
2022-09-06T22:25:53.097Z,21.45
2022-09-06T22:28:21.700Z,21.43
2022-09-06T22:30:55.370Z,21.45
2022-09-06T22:33:25.987Z,21.43
2022-09-06T22:35:58.618Z,21.25
2022-09-06T22:38:26.871Z,21.18
2022-09-06T22:40:57.217Z,21.39
2022-09-06T22:43:26.153Z,21.37
2022-09-06T22:46:04.781Z,21.33
2022-09-06T22:48:33.108Z,21.33
2022-09-06T22:51:03.892Z,21.07
2022-09-06T22:53:32.426Z,21.39
2022-09-06T22:56:01.539Z,21.40
2022-09-06T22:58:30.067Z,21.31
2022-09-06T23:01:07.270Z,21.32
2022-09-06T23:03:39.275Z,21.28
2022-09-06T23:06:07.689Z,21.12
2022-09-06T23:08:36.719Z,21.35
2022-09-06T23:11:12.928Z,21.27
2022-09-06T23:13:43.785Z,21.09
2022-09-06T23:16:15.325Z,21.08
2022-09-06T23:18:43.561Z,21.17
2022-09-06T23:21:14.920Z,21.23
2022-09-06T23:23:46.186Z,21.21
2022-09-06T23:26:16.170Z,21.10
2022-09-06T23:28:44.806Z,21.19
2022-09-06T23:31:16.972Z,21.08
2022-09-06T23:33:45.486Z,21.09
2022-09-06T23:36:14.943Z,20.99
2022-09-06T23:38:43.759Z,21.09
2022-09-06T23:41:13.568Z,20.99
2022-09-06T23:43:42.934Z,20.91
2022-09-06T23:46:13.238Z,20.75
2022-09-06T23:48:42.998Z,20.85
2022-09-06T23:51:12.784Z,20.91
2022-09-06T23:53:41.299Z,20.88
2022-09-06T23:56:11.349Z,20.87
2022-09-06T23:58:40.208Z,20.69
